createdAt,value
2019-04-24T00:02:51.285Z,99.90
2019-04-24T00:08:19.617Z,99.90
2019-04-24T00:11:16.555Z,99.90
2019-04-24T00:13:44.488Z,99.90
2019-04-24T00:16:15.547Z,99.90
2019-04-24T00:19:10.422Z,99.90
2019-04-24T00:25:30.437Z,99.90
2019-04-24T00:28:10.322Z,99.90
2019-04-24T00:30:30.115Z,99.90
2019-04-24T00:33:15.597Z,99.90
2019-04-24T00:38:34.326Z,99.90
2019-04-24T00:41:16.842Z,99.90
2019-04-24T00:43:48.552Z,99.90
2019-04-24T00:46:35.577Z,99.90
2019-04-24T00:48:55.510Z,99.90
2019-04-24T00:51:39.783Z,99.90
2019-04-24T00:54:20.904Z,99.90
2019-04-24T00:57:00.396Z,99.90
2019-04-24T01:07:22.759Z,99.90
2019-04-24T18:22:40.672Z,99.90
2019-04-24T18:25:42.160Z,99.90
2019-04-24T18:28:15.464Z,99.90
2019-04-24T18:30:48.614Z,99.90
2019-04-24T18:33:37.462Z,99.90
2019-04-24T18:36:11.774Z,99.90
2019-04-24T18:38:45.468Z,99.90
2019-04-24T18:41:19.709Z,99.90
2019-04-24T18:43:53.557Z,99.90
2019-04-24T18:46:26.580Z,99.90
2019-04-24T18:49:02.881Z,99.90
2019-04-24T18:51:37.585Z,99.90
2019-04-24T18:54:12.646Z,99.90
2019-04-24T18:56:45.963Z,99.90
2019-04-24T18:59:21.466Z,99.90
2019-04-24T19:01:56.669Z,99.90
2019-04-24T19:11:04.176Z,99.90
2019-04-24T19:17:54.288Z,99.90
2019-04-24T19:20:20.653Z,99.90
2019-04-24T19:23:02.225Z,99.90
2019-04-24T19:25:31.276Z,99.90
2019-04-24T19:28:04.658Z,99.90
2019-04-24T19:30:38.030Z,99.90
2019-04-24T19:33:11.701Z,99.90
2019-04-24T19:35:44.792Z,99.90
2019-04-24T19:38:17.917Z,99.90
2019-04-24T19:40:51.718Z,99.90
2019-04-24T19:50:54.762Z,99.90
2019-04-24T19:53:27.845Z,99.90
2019-04-24T19:56:01.805Z,99.90
2019-04-24T19:58:35.094Z,99.90
2019-04-24T20:01:22.002Z,99.90
2019-04-24T20:03:56.072Z,99.90
2019-04-24T20:06:29.126Z,99.90
2019-04-24T20:09:04.715Z,99.90
2019-04-24T20:11:42.811Z,99.90
2019-04-24T20:14:15.803Z,99.90
2019-04-24T20:16:48.988Z,99.90
2019-04-24T20:23:33.845Z,99.90
2019-04-24T20:26:03.393Z,99.90
2019-04-24T20:28:41.678Z,99.90
2019-04-24T20:31:15.896Z,99.90
2019-04-24T20:37:18.844Z,99.90
2019-04-24T20:39:53.493Z,99.90
2019-04-24T20:42:46.561Z,99.90
2019-04-24T20:45:22.025Z,99.90
2019-04-24T20:47:55.166Z,99.90
2019-04-24T20:50:28.272Z,99.90
2019-04-24T20:53:02.327Z,99.90
2019-04-24T20:55:39.371Z,99.90
2019-04-24T20:58:12.425Z,99.90
2019-04-24T21:00:46.187Z,99.90
2019-04-24T21:03:19.549Z,99.90
2019-04-24T21:06:10.952Z,99.90
2019-04-24T21:09:16.969Z,99.90
2019-04-24T21:11:42.593Z,99.90
2019-04-24T21:14:15.660Z,99.90
2019-04-24T21:16:48.964Z,99.90
2019-04-24T21:19:24.004Z,99.90
2019-04-24T21:22:09.253Z,99.90
2019-04-24T21:24:42.411Z,99.90
2019-04-24T21:27:15.497Z,99.90
2019-04-24T21:29:49.753Z,99.90
2019-04-24T21:32:23.548Z,99.90
2019-04-24T21:34:56.931Z,99.90
2019-04-24T21:37:29.946Z,99.90
2019-04-24T21:40:03.123Z,99.90
2019-04-24T21:42:36.846Z,99.90
2019-04-24T21:45:10.496Z,99.90
2019-04-24T21:47:43.593Z,99.90
2019-04-24T21:50:17.285Z,99.90
2019-04-24T21:52:52.014Z,99.90
2019-04-24T21:55:25.343Z,99.90
2019-04-24T21:58:07.253Z,99.90
2019-04-24T22:01:15.830Z,99.90
2019-04-24T22:04:13.132Z,99.90
2019-04-24T22:06:57.243Z,99.90
2019-04-24T22:09:32.234Z,99.90
2019-04-24T22:12:06.041Z,99.90
2019-04-24T22:14:39.228Z,99.90
2019-04-24T22:17:12.496Z,99.90
2019-04-24T22:19:45.501Z,99.90
2019-04-24T22:22:33.810Z,99.90
2019-04-24T22:25:25.459Z,99.90
2019-04-24T22:28:00.332Z,99.90
2019-04-24T22:31:00.325Z,99.90
2019-04-24T22:33:36.418Z,99.90
2019-04-24T22:36:09.827Z,97.20
2019-04-24T22:38:48.738Z,95.90
2019-04-24T22:41:21.652Z,95.00
2019-04-24T22:43:54.833Z,94.60
2019-04-24T22:46:28.537Z,94.20
2019-04-24T22:49:03.761Z,95.60
2019-04-24T22:51:36.887Z,98.40
2019-04-24T22:54:10.127Z,98.60
2019-04-24T22:56:53.720Z,96.70
2019-04-24T22:59:17.915Z,99.10
2019-04-24T23:01:59.262Z,99.90
2019-04-24T23:04:26.357Z,99.90
2019-04-24T23:07:01.254Z,94.60
2019-04-24T23:09:39.641Z,95.20
2019-04-24T23:12:12.981Z,96.50
2019-04-24T23:14:46.097Z,95.10
2019-04-24T23:17:19.563Z,94.50
2019-04-24T23:19:55.440Z,91.90
2019-04-24T23:22:46.697Z,92.00
2019-04-24T23:25:43.587Z,94.10
2019-04-24T23:28:38.492Z,90.10
2019-04-24T23:31:24.276Z,90.30
2019-04-24T23:33:59.147Z,90.80
2019-04-24T23:36:32.343Z,93.70
2019-04-24T23:39:06.076Z,90.00
2019-04-24T23:41:39.197Z,88.10
2019-04-24T23:44:13.245Z,89.10
2019-04-24T23:46:46.407Z,89.70
2019-04-24T23:49:19.510Z,89.70
2019-04-24T23:51:52.703Z,89.90
2019-04-24T23:54:26.239Z,89.60
2019-04-24T23:56:59.375Z,86.50
2019-04-24T23:59:32.537Z,89.40
